Latest Weather Observations for South Johnstone

IDQ60801

Issued at 7:35 pm EST Tuesday 30 September 2014 (issued every 30 minutes, with the page automatically refreshed every 10 minutes)

About weather observations | Map of weather stations | Latest weather observations for QLD | Other Formats
Station Details ID: 032037 Name: SOUTH JOHNSTONE EXP STN Lat: -17.61 Lon: 146.00 Height: 18.3 m
Data from the previous 72 hours. | See also: Recent months at South Johnstone
Date/Time
EST
Temp
°C
App
Temp
°C
Dew
Point
Rel
Hum
%
Delta-T
°C
Wind Press
QNH
hPa
Press
MSL
hPa
Rain
since 9 am
mm
Dir
 
Spd
km/h
Gust
km/h
Spd
kts
Gust
kts
30/07:30pm 21.8 22.1 16.0 69 3.5 S 9 11 5 6 1017.9 - 0.0
30/07:00pm 21.8 22.5 16.0 69 3.5 SSE 7 13 4 7 1017.6 - 0.0
30/06:30pm 22.3 22.1 15.8 66 3.9 S 11 13 6 7 1017.3 - 0.0
30/06:00pm 22.9 22.8 15.9 64 4.2 SSE 11 17 6 9 1017.1 1017.0 0.0
30/05:30pm 24.0 23.0 14.5 55 5.6 SE 13 20 7 11 1016.8 - 0.0
30/05:00pm 24.9 23.2 12.3 45 7.2 SE 13 20 7 11 1016.4 - 0.0
30/04:30pm 25.6 23.9 12.6 44 7.5 SE 13 19 7 10 1016.2 - 0.0
30/04:00pm 25.6 23.5 12.4 43 7.6 ESE 15 22 8 12 1016.1 - 0.0
30/03:30pm 26.1 24.4 12.6 43 7.8 ESE 13 20 7 11 1016.1 - 0.0
30/03:00pm 26.2 24.1 12.5 42 7.9 ESE 15 24 8 13 1016.1 1016.0 0.0
30/02:30pm 26.7 24.4 11.9 39 8.5 ESE 15 24 8 13 1016.1 - 0.0
30/02:00pm 26.7 24.3 11.4 38 8.7 SE 15 28 8 15 1016.3 - 0.0
30/01:30pm 27.2 25.4 12.1 39 8.7 SSE 13 22 7 12 1016.5 - 0.0
30/01:00pm 26.7 24.2 10.9 37 8.9 ESE 15 22 8 12 1017.1 - 0.0
30/12:30pm 26.6 23.8 10.0 35 9.2 ESE 15 20 8 11 1017.6 - 0.0
30/12:00pm 26.4 24.4 10.2 36 9.0 SE 11 20 6 11 1018.2 1018.1 0.0
30/11:30am 25.5 22.4 11.6 41 7.9 SSE 19 28 10 15 1018.9 - 0.0
30/11:00am 26.8 24.4 12.7 41 8.2 SE 17 24 9 13 1019.3 - 0.0
30/10:30am 26.3 23.1 11.3 39 8.5 ESE 19 28 10 15 1019.7 - 0.0
30/10:00am 25.8 22.9 12.4 43 7.7 SE 19 30 10 16 1019.8 - 0.0
30/09:30am 25.0 22.4 13.1 47 6.9 SE 19 33 10 18 1019.9 - 0.0
30/09:00am 25.3 22.4 12.9 46 7.2 SSE 20 28 11 15 1019.9 1019.8 0.0
30/08:30am 25.0 22.6 13.7 49 6.6 SSE 19 28 10 15 1019.7 - 0.0
30/08:00am 24.0 23.2 15.1 57 5.3 S 13 20 7 11 1019.5 - 0.0
30/07:30am 23.3 22.0 14.9 59 5.0 SSE 15 26 8 14 1019.3 - 0.0
30/07:00am 22.5 21.7 15.1 63 4.4 S 13 22 7 12 1018.8 - 0.0
30/06:30am 22.0 21.8 15.8 68 3.7 S 11 17 6 9 1018.4 - 0.0
30/06:00am 21.7 22.2 16.6 73 3.1 S 9 17 5 9 1018.0 1017.9 0.0
30/05:30am 20.8 21.7 16.5 76 2.6 SSE 7 11 4 6 1017.8 - 0.0
30/05:00am 21.7 21.5 16.8 73 3.0 S 13 20 7 11 1017.4 - 0.0
30/04:30am 21.1 22.8 18.0 82 1.9 S 6 9 3 5 1017.0 - 0.0
30/04:00am 19.8 22.7 18.3 91 0.9 CALM 0 7 0 4 1016.7 - 0.0
30/03:30am 19.5 21.6 18.0 91 0.9 WNW 4 7 2 4 1016.5 - 0.0
30/03:00am 19.6 21.1 18.1 91 0.9 W 7 13 4 7 1016.8 1016.7 0.0
30/02:30am 19.5 20.9 17.7 89 1.1 WSW 7 11 4 6 1016.8 - 0.0
30/02:00am 19.3 20.8 17.7 90 1.0 W 6 9 3 5 1017.0 - 0.0
30/01:30am 19.4 21.4 17.8 90 1.0 W 4 9 2 5 1017.3 - 0.0
30/01:00am 19.5 20.7 17.4 88 1.3 SW 7 15 4 8 1017.6 - 0.0
30/12:30am 19.2 20.3 17.2 88 1.2 W 7 13 4 7 1017.7 - 0.0
30/12:00am 19.3 20.1 17.2 88 1.3 WSW 9 15 5 8 1018.0 1017.9 0.0
 
Date/Time
EST
Temp
°C
App
Temp
°C
Dew
Point
Rel
Hum
%
Delta-T
°C
Wind Press
QNH
hPa
Press
MSL
hPa
Rain
since 9 am
mm
Dir
 
Spd
km/h
Gust
km/h
Spd
kts
Gust
kts
29/11:30pm 19.7 21.6 17.6 88 1.3 W 4 7 2 4 1018.2 - 0.0
29/11:00pm 21.8 22.6 16.3 71 3.3 S 7 11 4 6 1018.3 - 0.0
29/10:30pm 21.7 22.6 16.6 73 3.1 S 7 11 4 6 1018.4 - 0.0
29/10:00pm 21.7 22.9 17.3 76 2.7 S 7 11 4 6 1018.4 - 0.0
29/09:30pm 20.5 23.1 17.6 83 1.8 CALM 0 0 0 0 1018.2 - 0.0
29/09:00pm 20.2 22.8 17.4 84 1.7 CALM 0 0 0 0 1018.1 1018.0 0.0
29/08:30pm 20.6 23.2 17.5 82 1.9 CALM 0 0 0 0 1017.9 - 0.0
29/08:00pm 22.2 24.6 17.0 72 3.2 CALM 0 0 0 0 1017.7 - 0.0
29/07:30pm 21.7 23.9 16.6 73 3.1 CALM 0 0 0 0 1017.4 - 0.0
29/07:00pm 21.7 23.8 16.2 71 3.3 CALM 0 4 0 2 1017.0 - 0.0
29/06:30pm 22.6 23.3 16.0 66 4.0 SSE 7 15 4 8 1016.9 - 0.0
29/06:00pm 23.4 23.2 15.8 62 4.6 SSE 11 17 6 9 1016.7 1016.6 0.0
29/05:30pm 24.3 23.4 15.9 59 5.1 SE 15 22 8 12 1016.3 - 0.0
29/05:00pm 25.0 23.3 14.8 53 6.1 SE 17 24 9 13 1016.1 - 0.0
29/04:30pm 25.5 24.4 15.2 53 6.2 SE 15 24 8 13 1016.0 - 0.0
29/04:00pm 26.1 24.9 16.2 54 6.1 SE 17 26 9 14 1015.8 - 0.0
29/03:30pm 26.3 24.9 15.6 51 6.5 SE 17 26 9 14 1015.7 - 0.0
29/03:00pm 25.5 23.7 15.6 54 6.0 ESE 19 26 10 14 1016.0 1015.9 0.0
29/02:30pm 27.2 26.0 16.2 51 6.8 SSE 17 28 9 15 1016.1 - 0.0
29/02:00pm 26.3 24.2 14.6 48 7.0 SE 19 30 10 16 1016.4 - 0.0
29/01:30pm 26.7 24.2 14.1 46 7.5 SE 20 30 11 16 1016.6 - 0.0
29/01:00pm 27.6 25.4 13.4 41 8.4 SE 17 30 9 16 1016.9 - 0.0
29/12:30pm 27.2 24.6 13.9 44 7.9 ESE 20 33 11 18 1017.4 - 0.0
29/12:00pm 27.2 24.2 12.1 39 8.7 ESE 19 26 10 14 1017.8 1017.7 0.0
29/11:30am 26.8 23.5 12.7 41 8.2 ESE 22 35 12 19 1018.4 - 0.0
29/11:00am 26.6 23.8 12.6 42 8.1 SE 19 30 10 16 1018.7 - 0.0
29/10:30am 26.7 24.1 13.9 45 7.6 SE 20 33 11 18 1018.9 - 0.0
29/10:00am 24.9 23.3 15.0 54 5.9 SE 17 32 9 17 1018.9 - 0.0
29/09:30am 24.6 25.4 17.2 63 4.6 S 9 17 5 9 1019.0 - 0.0
29/09:00am 23.9 26.8 18.2 70 3.6 CALM 0 4 0 2 1019.0 1018.9 0.0
29/08:30am 21.8 24.8 18.4 81 2.1 CALM 0 6 0 3 1018.9 - 0.0
29/08:00am 20.4 23.2 18.0 86 1.5 CALM 0 0 0 0 1018.8 - 0.0
29/07:30am 18.8 19.3 16.5 86 1.4 SW 9 15 5 8 1018.4 - 0.0
29/07:00am 16.8 16.6 15.6 93 0.7 WSW 11 17 6 9 1017.9 - 0.0
29/06:30am 16.2 16.9 15.5 96 0.4 WNW 6 11 3 6 1017.6 - 0.0
29/06:00am 16.1 17.2 15.6 97 0.3 WNW 4 7 2 4 1017.4 1017.3 0.0
29/05:30am 16.2 16.8 15.7 97 0.3 WNW 7 11 4 6 1017.0 - 0.0
29/05:00am 16.0 17.4 15.3 96 0.4 W 2 7 1 4 1016.7 - 0.0
29/04:30am 16.3 16.9 15.4 94 0.5 WNW 6 11 3 6 1016.4 - 0.0
29/04:00am 16.3 17.4 15.6 96 0.4 W 4 9 2 5 1016.1 - 0.0
29/03:30am 16.3 17.1 15.8 97 0.3 WNW 6 9 3 5 1016.1 - 0.0
29/03:00am 16.4 17.8 15.5 94 0.5 NNW 2 7 1 4 1016.2 1016.1 0.0
29/02:30am 16.5 17.2 15.6 94 0.5 WNW 6 7 3 4 1016.5 - 0.0
29/02:00am 16.4 17.1 15.7 96 0.4 W 6 9 3 5 1016.7 - 0.0
29/01:30am 16.6 17.7 15.7 94 0.5 WNW 4 7 2 4 1016.9 - 0.0
29/01:00am 16.9 18.1 15.9 94 0.6 W 4 9 2 5 1017.2 - 0.0
29/12:30am 17.1 17.9 15.9 93 0.7 W 6 9 3 5 1017.5 - 0.0
29/12:00am 17.3 18.1 16.3 94 0.6 WNW 7 11 4 6 1017.7 1017.6 0.0
 
Date/Time
EST
Temp
°C
App
Temp
°C
Dew
Point
Rel
Hum
%
Delta-T
°C
Wind Press
QNH
hPa
Press
MSL
hPa
Rain
since 9 am
mm
Dir
 
Spd
km/h
Gust
km/h
Spd
kts
Gust
kts
28/11:30pm 17.0 17.8 15.8 93 0.7 WNW 6 9 3 5 1017.9 - 0.0
28/11:00pm 17.3 18.1 15.9 91 0.8 W 6 9 3 5 1018.1 - 0.0
28/10:30pm 17.8 18.5 16.1 90 1.0 W 7 11 4 6 1018.3 - 0.0
28/10:00pm 18.2 19.1 16.2 88 1.2 WNW 6 9 3 5 1018.5 - 0.0
28/09:30pm 18.7 19.7 16.9 89 1.1 W 7 11 4 6 1018.5 - 0.0
28/09:00pm 19.0 20.1 17.2 89 1.1 W 7 11 4 6 1018.4 1018.3 0.0
28/08:30pm 19.2 20.1 16.7 85 1.5 W 7 11 4 6 1018.2 - 0.0
28/08:00pm 19.5 21.6 17.2 86 1.4 SSW 2 11 1 6 1017.9 - 0.0
28/07:30pm 20.2 22.8 17.6 85 1.6 CALM 0 0 0 0 1017.6 - 0.0
28/07:00pm 21.6 23.8 16.5 73 3.1 CALM 0 6 0 3 1017.3 - 0.0
28/06:30pm 22.5 23.9 16.4 68 3.7 SSE 4 7 2 4 1016.9 - 0.0
28/06:00pm 23.6 24.2 15.8 61 4.7 SSE 7 11 4 6 1016.4 1016.3 0.0
28/05:30pm 24.8 24.5 15.5 56 5.6 ESE 11 15 6 8 1016.1 - 0.0
28/05:00pm 25.4 24.4 15.5 54 6.0 ESE 15 19 8 10 1015.9 - 0.0
28/04:30pm 26.4 25.4 14.7 48 7.0 E 13 22 7 12 1015.7 - 0.0
28/04:00pm 26.8 25.3 14.2 46 7.5 ESE 15 24 8 13 1015.5 - 0.0
28/03:30pm 27.0 25.6 14.5 46 7.5 E 15 24 8 13 1015.5 - 0.0
28/03:00pm 27.3 26.3 14.5 45 7.7 E 13 24 7 13 1015.7 1015.6 0.0
28/02:30pm 27.7 25.2 12.4 38 8.9 ENE 17 28 9 15 1015.7 - 0.0
28/02:00pm 28.0 26.3 13.5 41 8.6 E 15 26 8 14 1015.9 - 0.0
28/01:30pm 28.1 25.7 12.5 38 9.1 ESE 17 24 9 13 1016.3 - 0.0
28/01:00pm 28.4 26.1 13.1 39 9.0 ESE 17 30 9 16 1016.5 - 0.0
28/12:30pm 28.0 25.5 13.5 41 8.6 ESE 19 26 10 14 1016.8 - 0.0
28/12:00pm 28.2 27.6 15.6 46 7.7 E 13 26 7 14 1017.2 1017.1 0.0
28/11:30am 27.5 27.1 17.1 53 6.5 SE 15 28 8 15 1017.7 - 0.0
28/11:00am 27.4 26.8 16.6 51 6.7 E 15 26 8 14 1018.3 - 0.0
28/10:30am 26.7 26.1 16.7 54 6.2 ESE 15 22 8 12 1018.6 - 0.0
28/10:00am 26.4 26.1 17.4 57 5.6 E 15 22 8 12 1018.8 - 0.0
28/09:30am 25.1 27.6 19.8 72 3.4 E 6 11 3 6 1019.0 - 0.0
28/09:00am 25.1 26.9 19.5 71 3.6 NE 9 13 5 7 1018.9 1018.8 0.0
28/08:30am 24.7 27.2 19.9 74 3.1 E 6 11 3 6 1018.8 - 0.0
28/08:00am 23.2 27.4 20.9 87 1.5 CALM 0 0 0 0 1018.4 - 0.0
28/07:30am 21.5 24.9 20.1 92 0.9 WSW 2 7 1 4 1018.2 - 0.0
28/07:00am 19.8 22.0 19.2 96 0.4 W 6 9 3 5 1017.7 - 0.0
28/06:30am 19.0 21.6 18.5 97 0.3 WNW 2 7 1 4 1017.3 - 0.0
28/06:00am 19.2 21.6 18.7 97 0.3 W 4 7 2 4 1017.1 1017.0 0.0
28/05:30am 19.6 22.5 19.0 96 0.4 W 2 9 1 5 1016.7 - 0.0
28/05:00am 19.6 22.9 19.0 96 0.4 CALM 0 0 0 0 1016.4 - 0.0
28/04:30am 19.8 22.0 19.2 96 0.4 SW 6 9 3 5 1015.9 - 0.0
28/04:00am 19.8 22.0 19.2 96 0.4 W 6 9 3 5 1015.8 - 0.0
28/03:30am 19.8 21.4 19.2 96 0.4 WSW 9 13 5 7 1015.6 - 0.0
28/03:00am 20.1 23.5 19.3 95 0.5 CALM 0 0 0 0 1015.7 1015.6 0.0
28/02:30am 20.1 22.2 19.3 95 0.5 WNW 7 9 4 5 1016.0 - 0.0
28/02:00am 19.8 21.8 19.2 96 0.4 W 7 11 4 6 1016.3 - 0.0
28/01:30am 19.9 21.1 19.1 95 0.5 WSW 11 13 6 7 1016.5 - 0.0
28/01:00am 19.7 20.8 18.9 95 0.5 WSW 11 15 6 8 1016.7 - 0.0
28/12:30am 19.6 21.5 19.0 96 0.4 WSW 7 11 4 6 1017.0 - 0.0
28/12:00am 19.8 22.7 19.0 95 0.5 W 2 9 1 5 1017.3 1017.2 0.0
 
Date/Time
EST
Temp
°C
App
Temp
°C
Dew
Point
Rel
Hum
%
Delta-T
°C
Wind Press
QNH
hPa
Press
MSL
hPa
Rain
since 9 am
mm
Dir
 
Spd
km/h
Gust
km/h
Spd
kts
Gust
kts
27/11:30pm 19.8 22.3 19.0 95 0.5 W 4 7 2 4 1017.2 - 0.0
27/11:00pm 20.3 23.5 19.7 96 0.4 W 2 7 1 4 1017.2 - 0.0
27/10:30pm 20.3 22.9 19.3 94 0.6 W 4 9 2 5 1017.1 - 0.0
27/10:00pm 20.4 23.1 19.5 95 0.6 W 4 9 2 5 1017.0 - 0.0
27/09:30pm 20.7 22.9 19.6 93 0.7 WSW 7 11 4 6 1016.7 - 0.0
27/09:00pm 21.0 23.4 19.7 92 0.8 WSW 6 11 3 6 1016.4 1016.3 0.0
27/08:30pm 21.5 25.3 20.1 92 0.9 CALM 0 0 0 0 1016.1 - 0.0
27/08:00pm 21.9 25.7 20.2 90 1.1 CALM 0 0 0 0 1015.8 - 0.0

Other Formats:

Comma delimited format used in spreadsheet applications
http://www.bom.gov.au/fwo/IDQ60801/IDQ60801.95292.axf

JavaScript Object Notation format (JSON) in row-major order
http://www.bom.gov.au/fwo/IDQ60801/IDQ60801.95292.json